createdAt,value
2018-08-09T00:01:55.985Z,59.59
2018-08-09T00:04:25.996Z,59.98
2018-08-09T00:06:56.030Z,59.57
2018-08-09T00:09:26.046Z,60.30
2018-08-09T00:11:55.964Z,60.61
2018-08-09T00:14:26.111Z,60.42
2018-08-09T00:16:55.988Z,60.26
2018-08-09T00:19:26.012Z,60.12
2018-08-09T00:21:56.013Z,60.49
2018-08-09T00:24:26.023Z,60.69
2018-08-09T00:26:56.117Z,60.75
2018-08-09T00:29:25.957Z,60.65
2018-08-09T00:31:56.084Z,61.03
2018-08-09T00:34:25.957Z,60.75
2018-08-09T00:36:56.063Z,60.75
2018-08-09T00:39:26.067Z,61.24
2018-08-09T00:41:56.019Z,60.86
2018-08-09T00:44:26.136Z,61.55
2018-08-09T00:46:56.077Z,61.49
2018-08-09T00:49:26.104Z,60.92
2018-08-09T00:51:55.981Z,61.91
2018-08-09T00:54:26.054Z,61.80
2018-08-09T00:56:56.131Z,61.62
2018-08-09T00:59:26.012Z,61.82
2018-08-09T01:01:55.962Z,61.60
2018-08-09T01:04:26.063Z,62.12
2018-08-09T01:06:56.089Z,61.97
2018-08-09T01:09:25.932Z,61.90
2018-08-09T01:11:56.023Z,61.86
2018-08-09T01:14:26.372Z,61.91
2018-08-09T01:16:56.342Z,62.36
2018-08-09T01:19:26.163Z,62.24
2018-08-09T01:21:56.046Z,63.14
2018-08-09T01:24:29.963Z,63.44
2018-08-09T01:27:00.001Z,63.79
2018-08-09T01:29:30.289Z,64.62
2018-08-09T01:32:00.785Z,65.24
2018-08-09T01:34:30.963Z,65.43
2018-08-09T01:37:01.033Z,65.05
2018-08-09T01:39:31.017Z,65.06
2018-08-09T01:42:11.642Z,66.00
2018-08-09T01:44:41.449Z,65.81
2018-08-09T01:47:11.392Z,65.35
2018-08-09T01:49:41.204Z,65.69
2018-08-09T01:52:11.133Z,65.06
2018-08-09T01:54:41.028Z,65.02
2018-08-09T01:57:10.953Z,65.32
2018-08-09T01:59:41.013Z,65.32
2018-08-09T02:02:11.090Z,65.24
2018-08-09T02:04:41.015Z,65.93
2018-08-09T02:07:11.052Z,65.64
2018-08-09T02:09:40.936Z,65.42
2018-08-09T02:12:11.044Z,65.41
2018-08-09T02:14:40.942Z,65.86
2018-08-09T02:17:11.068Z,65.62
2018-08-09T02:19:40.962Z,65.56
2018-08-09T02:22:10.995Z,65.46
2018-08-09T02:24:41.015Z,65.39
2018-08-09T02:27:15.968Z,65.15
2018-08-09T02:29:45.998Z,65.26
2018-08-09T02:32:15.898Z,65.84
2018-08-09T02:34:45.964Z,66.35
2018-08-09T02:37:16.073Z,66.38
2018-08-09T02:39:45.960Z,65.55
2018-08-09T02:42:16.205Z,65.29
2018-08-09T02:44:46.708Z,65.46
2018-08-09T02:47:16.900Z,65.78
2018-08-09T02:49:47.049Z,65.50
2018-08-09T02:52:17.029Z,65.88
2018-08-09T02:54:46.872Z,65.61
2018-08-09T02:57:16.740Z,66.21
2018-08-09T02:59:46.596Z,66.04
2018-08-09T03:02:16.458Z,65.52
2018-08-09T03:04:46.395Z,65.63
2018-08-09T03:07:16.903Z,65.86
2018-08-09T03:09:46.756Z,66.23
2018-08-09T03:12:16.658Z,66.05
2018-08-09T03:14:46.522Z,66.33
2018-08-09T03:17:16.536Z,66.30
2018-08-09T03:19:46.538Z,65.77
2018-08-09T03:22:16.388Z,65.80
2018-08-09T03:24:47.023Z,66.40
2018-08-09T03:27:17.879Z,66.52
2018-08-09T03:29:56.318Z,66.35
2018-08-09T03:32:26.188Z,66.23
2018-08-09T03:34:56.092Z,66.38
2018-08-09T03:37:25.929Z,66.29
2018-08-09T03:39:55.764Z,66.96
2018-08-09T03:42:25.900Z,66.69
2018-08-09T03:44:55.750Z,66.79
2018-08-09T03:47:25.740Z,66.89
2018-08-09T03:49:56.697Z,67.30
2018-08-09T03:52:28.169Z,66.93
2018-08-09T03:54:58.986Z,66.79
2018-08-09T03:57:29.879Z,67.10
2018-08-09T04:00:00.816Z,67.42
2018-08-09T04:02:32.134Z,67.88
2018-08-09T04:05:02.876Z,67.06
2018-08-09T04:07:33.805Z,67.40
2018-08-09T04:10:04.889Z,67.49
2018-08-09T04:12:35.899Z,67.23
2018-08-09T04:15:08.785Z,68.32
2018-08-09T04:17:38.731Z,68.16
2018-08-09T04:20:08.689Z,67.99
2018-08-09T04:22:39.992Z,67.68
2018-08-09T04:25:11.693Z,67.99
2018-08-09T04:27:42.065Z,67.79
2018-08-09T04:30:12.973Z,67.65
2018-08-09T04:32:43.829Z,68.27
2018-08-09T04:35:14.737Z,67.64
2018-08-09T04:37:45.745Z,68.06
2018-08-09T04:40:17.089Z,67.72
2018-08-09T04:42:48.024Z,67.58
2018-08-09T04:45:19.045Z,67.14
2018-08-09T04:47:49.933Z,68.29
2018-08-09T04:50:20.827Z,67.02
2018-08-09T04:52:51.709Z,67.31
2018-08-09T04:55:23.057Z,67.14
2018-08-09T04:57:53.938Z,67.72
2018-08-09T05:00:24.776Z,67.89
2018-08-09T05:02:56.131Z,67.82
2018-08-09T05:05:27.023Z,67.46
2018-08-09T05:07:57.978Z,67.58
2018-08-09T05:10:29.091Z,67.27
2018-08-09T05:12:59.944Z,67.37
2018-08-09T05:15:31.557Z,67.20
2018-08-09T05:18:04.669Z,67.08
2018-08-09T05:20:34.600Z,66.31
2018-08-09T05:23:04.794Z,65.89
2018-08-09T05:25:34.727Z,65.30
2018-08-09T05:28:06.159Z,64.95
2018-08-09T05:30:37.001Z,65.14
2018-08-09T05:33:13.949Z,64.77
2018-08-09T05:35:43.862Z,65.31
2018-08-09T05:38:13.785Z,64.94
2018-08-09T05:40:43.685Z,64.32
2018-08-09T05:43:13.689Z,63.84
2018-08-09T05:45:43.569Z,63.44
2018-08-09T05:48:14.033Z,64.25
2018-08-09T05:50:44.996Z,63.40
2018-08-09T05:53:15.968Z,63.57
2018-08-09T05:55:46.972Z,63.82
2018-08-09T05:58:17.843Z,63.62
2018-08-09T06:00:48.793Z,63.74
2018-08-09T06:03:20.122Z,63.03
2018-08-09T06:05:51.235Z,62.90
2018-08-09T06:08:22.113Z,62.72
2018-08-09T06:10:52.982Z,62.58
2018-08-09T06:13:24.006Z,62.75
2018-08-09T06:15:54.910Z,62.41
2018-08-09T06:18:25.801Z,62.38
2018-08-09T06:20:56.666Z,62.20
2018-08-09T06:23:27.928Z,61.53
2018-08-09T06:25:58.664Z,61.03
2018-08-09T06:28:31.248Z,60.55
2018-08-09T06:31:01.127Z,60.68
2018-08-09T06:33:32.038Z,60.25
2018-08-09T06:36:10.305Z,59.44
2018-08-09T06:38:40.201Z,59.47
2018-08-09T06:41:10.056Z,58.34
2018-08-09T06:43:39.856Z,58.56
2018-08-09T06:46:09.706Z,57.21
2018-08-09T06:48:40.003Z,56.94
2018-08-09T06:51:09.872Z,56.48
2018-08-09T06:53:39.781Z,56.37
2018-08-09T06:56:11.264Z,56.04
2018-08-09T06:58:43.152Z,56.10
2018-08-09T07:01:13.020Z,55.01
2018-08-09T07:03:43.910Z,54.97
2018-08-09T07:06:14.933Z,54.35
2018-08-09T07:08:45.710Z,54.79
2018-08-09T07:11:16.952Z,54.10
2018-08-09T07:13:47.849Z,53.56
2018-08-09T07:16:18.685Z,53.88
2018-08-09T07:18:50.077Z,53.40
2018-08-09T07:21:20.928Z,53.10
2018-08-09T07:23:51.792Z,53.32
2018-08-09T07:26:22.883Z,53.15
2018-08-09T07:28:54.128Z,53.15
2018-08-09T07:31:24.594Z,52.33
2018-08-09T07:33:55.162Z,53.09
2018-08-09T07:36:25.992Z,52.25
2018-08-09T07:38:56.868Z,52.44
2018-08-09T07:41:27.697Z,51.72
2018-08-09T07:43:59.095Z,52.08
2018-08-09T07:46:30.824Z,51.18
2018-08-09T07:49:00.833Z,51.30
2018-08-09T07:51:31.904Z,50.07
2018-08-09T07:54:03.457Z,49.57
2018-08-09T07:56:34.002Z,49.82
2018-08-09T07:59:05.292Z,49.29
2018-08-09T08:01:36.117Z,49.72
2018-08-09T08:04:07.101Z,49.23
2018-08-09T08:06:38.080Z,48.81
2018-08-09T08:09:11.415Z,47.19
2018-08-09T08:11:41.985Z,46.81
2018-08-09T08:14:12.353Z,46.93
2018-08-09T08:16:42.260Z,47.44
2018-08-09T08:19:13.042Z,46.11
2018-08-09T08:21:44.030Z,45.90
2018-08-09T08:24:15.264Z,45.98
2018-08-09T08:26:45.983Z,45.71
2018-08-09T08:29:17.077Z,45.54
2018-08-09T08:31:47.125Z,45.27
2018-08-09T08:34:18.776Z,45.00
2018-08-09T08:36:49.452Z,44.23
2018-08-09T08:39:20.104Z,44.16
2018-08-09T08:41:51.289Z,44.36
2018-08-09T08:44:23.512Z,44.11
2018-08-09T08:46:53.394Z,43.70
2018-08-09T08:49:23.973Z,42.89
2018-08-09T08:52:16.871Z,42.59
2018-08-09T08:54:47.022Z,43.08
2018-08-09T08:57:17.177Z,43.13
2018-08-09T08:59:47.213Z,41.90
2018-08-09T09:02:17.149Z,42.16
2018-08-09T09:04:47.105Z,40.85
2018-08-09T09:07:17.272Z,41.72
2018-08-09T09:09:47.427Z,40.35
2018-08-09T09:12:22.903Z,40.50
2018-08-09T09:14:52.970Z,40.25
2018-08-09T09:17:22.982Z,40.73
2018-08-09T09:19:53.361Z,40.31
2018-08-09T09:22:24.400Z,39.32
2018-08-09T09:24:54.510Z,39.60
2018-08-09T09:27:24.357Z,39.87
2018-08-09T09:29:54.245Z,39.89
2018-08-09T09:32:24.530Z,38.94
2018-08-09T09:34:54.780Z,38.97
2018-08-09T09:37:24.999Z,39.49
2018-08-09T09:39:54.934Z,38.83
2018-08-09T09:42:25.269Z,38.79
2018-08-09T09:44:55.714Z,38.31
2018-08-09T09:47:25.561Z,37.81
2018-08-09T09:49:55.548Z,36.69
2018-08-09T09:52:25.436Z,36.79
2018-08-09T09:54:55.637Z,37.16
2018-08-09T09:57:25.577Z,35.68
2018-08-09T09:59:55.430Z,35.45
2018-08-09T10:02:25.322Z,35.67
2018-08-09T10:04:55.208Z,35.34
2018-08-09T10:07:25.103Z,35.35
2018-08-09T10:09:56.126Z,35.25
2018-08-09T10:12:25.976Z,34.86
2018-08-09T10:14:57.333Z,34.71
2018-08-09T10:17:27.935Z,34.14
2018-08-09T10:19:58.938Z,33.95
2018-08-09T10:22:29.774Z,33.86
2018-08-09T10:25:01.210Z,34.08
2018-08-09T10:27:31.966Z,33.50
2018-08-09T10:30:02.882Z,33.94
2018-08-09T10:32:33.717Z,33.78
2018-08-09T10:35:04.827Z,33.82
2018-08-09T10:37:35.750Z,33.56
2018-08-09T10:40:07.010Z,33.22
2018-08-09T10:42:37.821Z,32.47
2018-08-09T10:45:08.692Z,32.91
2018-08-09T10:47:40.073Z,31.54
2018-08-09T10:50:11.025Z,32.02
2018-08-09T10:52:41.896Z,31.25
2018-08-09T10:55:12.836Z,31.42
2018-08-09T10:57:43.838Z,31.81
2018-08-09T11:00:14.841Z,29.87
2018-08-09T11:02:45.763Z,31.07
2018-08-09T11:05:16.826Z,30.45
2018-08-09T11:07:47.696Z,29.92
2018-08-09T11:10:19.101Z,30.10
2018-08-09T11:12:49.977Z,30.23
2018-08-09T11:15:20.932Z,29.42
2018-08-09T11:17:57.959Z,29.22
2018-08-09T11:20:28.830Z,29.56
2018-08-09T11:22:59.068Z,29.72
2018-08-09T11:25:29.133Z,29.71
2018-08-09T11:27:59.832Z,29.71
2018-08-09T11:30:30.294Z,28.91
2018-08-09T11:33:00.161Z,29.00
2018-08-09T11:35:30.126Z,28.79
2018-08-09T11:38:00.114Z,29.29
2018-08-09T11:40:31.020Z,29.12
2018-08-09T11:43:01.936Z,28.82
2018-08-09T11:45:33.253Z,28.82
2018-08-09T11:48:04.015Z,28.61
2018-08-09T11:50:34.837Z,29.10
2018-08-09T11:53:04.751Z,29.03
2018-08-09T11:55:35.678Z,28.36
2018-08-09T11:58:07.288Z,28.69
2018-08-09T12:02:02.071Z,29.07
2018-08-09T12:04:32.278Z,28.77
2018-08-09T12:07:02.323Z,29.51
2018-08-09T12:09:32.412Z,29.44
2018-08-09T12:12:02.626Z,29.05
2018-08-09T12:14:33.347Z,29.48
2018-08-09T12:17:03.222Z,29.09
2018-08-09T12:19:33.182Z,29.04
2018-08-09T12:22:03.067Z,29.79
2018-08-09T12:24:33.016Z,29.81
2018-08-09T12:27:03.094Z,29.94
2018-08-09T12:29:33.241Z,30.34
2018-08-09T12:32:03.264Z,30.23
2018-08-09T12:34:33.165Z,30.27
2018-08-09T12:37:03.021Z,30.64
2018-08-09T12:39:33.066Z,31.41
2018-08-09T12:42:03.055Z,31.37
2018-08-09T12:44:33.513Z,32.49
2018-08-09T12:47:03.369Z,32.56
2018-08-09T12:49:33.400Z,32.42
2018-08-09T12:52:03.318Z,32.33
2018-08-09T12:54:33.562Z,32.27
2018-08-09T12:57:03.766Z,32.46
2018-08-09T13:13:28.393Z,31.24
2018-08-09T13:15:58.565Z,31.72
2018-08-09T13:18:28.905Z,32.11
2018-08-09T13:20:58.908Z,31.96
2018-08-09T13:23:29.083Z,31.79
2018-08-09T13:25:59.457Z,32.65
2018-08-09T13:28:29.337Z,32.50
2018-08-09T13:30:59.165Z,33.03
2018-08-09T13:33:28.981Z,33.43
2018-08-09T13:35:59.072Z,33.42
2018-08-09T13:38:29.180Z,34.46
2018-08-09T13:40:59.028Z,35.06
2018-08-09T13:43:29.072Z,36.08
2018-08-09T13:45:59.230Z,40.79
2018-08-09T13:48:29.096Z,43.15
2018-08-09T13:50:59.071Z,44.03
2018-08-09T13:53:29.435Z,45.07
2018-08-09T13:55:59.406Z,46.31
2018-08-09T13:58:29.395Z,47.80
2018-08-09T14:00:59.573Z,49.00
2018-08-09T14:03:29.873Z,50.29
2018-08-09T14:06:00.009Z,50.32
2018-08-09T14:08:30.887Z,49.69
2018-08-09T14:11:00.934Z,50.06
2018-08-09T14:13:31.762Z,49.83
2018-08-09T14:16:01.764Z,49.35
2018-08-09T14:18:32.169Z,49.51
2018-08-09T14:21:02.338Z,49.05
2018-08-09T14:23:32.242Z,49.52
2018-08-09T14:26:02.241Z,49.76
2018-08-09T14:28:32.222Z,50.73
2018-08-09T14:31:02.378Z,50.78
2018-08-09T14:33:32.667Z,50.71
2018-08-09T14:36:02.501Z,51.23
2018-08-09T14:38:32.762Z,51.27
2018-08-09T14:41:03.386Z,51.26
2018-08-09T14:43:33.721Z,51.44
2018-08-09T14:46:04.060Z,51.04
2018-08-09T14:48:34.036Z,51.19
2018-08-09T14:51:04.098Z,50.75
2018-08-09T14:53:34.061Z,51.43
2018-08-09T14:56:03.989Z,50.27
2018-08-09T14:58:34.137Z,49.48
2018-08-09T15:01:03.990Z,49.15
2018-08-09T15:03:34.062Z,48.86
2018-08-09T15:06:04.322Z,49.14
2018-08-09T15:08:34.277Z,48.41
2018-08-09T15:11:04.363Z,47.99
2018-08-09T15:13:34.222Z,47.63
2018-08-09T15:16:04.175Z,47.81
2018-08-09T15:18:34.171Z,47.17
2018-08-09T15:21:04.462Z,47.00
2018-08-09T15:23:34.461Z,45.89
2018-08-09T15:26:04.483Z,45.24
2018-08-09T15:28:34.739Z,44.69
2018-08-09T15:31:05.059Z,43.00
2018-08-09T15:33:35.097Z,42.45
2018-08-09T15:36:05.088Z,42.54
2018-08-09T15:38:35.107Z,42.80
2018-08-09T15:41:08.272Z,42.82
2018-08-09T15:43:38.143Z,41.85
2018-08-09T15:46:08.675Z,41.65
2018-08-09T15:48:39.138Z,41.25
2018-08-09T15:51:08.966Z,40.51
2018-08-09T15:53:38.997Z,39.93
2018-08-09T15:56:08.874Z,39.83
2018-08-09T15:58:39.046Z,40.15
2018-08-09T16:01:08.913Z,39.55
2018-08-09T16:03:39.579Z,39.92
2018-08-09T16:06:09.435Z,39.92
2018-08-09T16:08:39.358Z,40.01
2018-08-09T16:11:09.724Z,40.51
2018-08-09T16:13:40.246Z,40.52
2018-08-09T16:16:10.132Z,40.62
2018-08-09T16:18:40.176Z,40.56
2018-08-09T16:21:10.192Z,40.51
2018-08-09T16:23:40.225Z,40.16
2018-08-09T16:26:10.644Z,40.86
2018-08-09T16:28:40.883Z,40.21
2018-08-09T16:31:11.083Z,40.44
2018-08-09T16:33:41.174Z,40.31
2018-08-09T16:36:11.529Z,40.46
2018-08-09T16:38:41.772Z,40.38
2018-08-09T16:41:12.601Z,40.40
2018-08-09T16:43:42.561Z,39.83
2018-08-09T16:46:12.573Z,40.36
2018-08-09T16:48:42.544Z,40.05
2018-08-09T16:51:12.378Z,39.83
2018-08-09T16:53:42.242Z,40.09
2018-08-09T16:56:12.566Z,40.71
2018-08-09T16:58:42.407Z,40.61
2018-08-09T17:01:12.377Z,39.82
2018-08-09T17:03:42.916Z,40.53
2018-08-09T17:06:13.101Z,40.85
2018-08-09T17:08:42.944Z,41.72
2018-08-09T17:11:12.899Z,41.67
2018-08-09T17:13:44.173Z,42.17
2018-08-09T17:16:15.015Z,42.60
2018-08-09T17:18:46.344Z,42.96
2018-08-09T17:21:17.801Z,43.37
2018-08-09T17:23:47.777Z,43.72
2018-08-09T17:26:18.797Z,43.86
2018-08-09T17:28:49.628Z,43.58
2018-08-09T17:31:20.368Z,44.55
2018-08-09T17:33:51.008Z,45.61
2018-08-09T17:36:22.037Z,46.04
2018-08-09T17:38:52.973Z,45.90
2018-08-09T17:41:24.020Z,45.86
2018-08-09T17:44:03.301Z,46.15
2018-08-09T17:46:33.717Z,45.77
2018-08-09T17:49:03.685Z,46.36
2018-08-09T17:51:35.852Z,46.54
2018-08-09T17:54:05.862Z,46.36
2018-08-09T17:56:35.933Z,46.52
2018-08-09T17:59:06.569Z,47.83
2018-08-09T18:01:36.419Z,47.35
2018-08-09T18:04:06.473Z,47.14
2018-08-09T18:06:37.011Z,47.45
2018-08-09T18:09:10.565Z,47.63
2018-08-09T18:11:40.921Z,48.14
2018-08-09T18:14:10.937Z,48.01
2018-08-09T18:16:40.762Z,49.19
2018-08-09T18:19:11.014Z,49.30
2018-08-09T18:21:41.280Z,48.84
2018-08-09T18:24:11.554Z,48.59
2018-08-09T18:26:41.464Z,48.04
2018-08-09T18:29:11.358Z,47.78
2018-08-09T18:31:41.318Z,46.37
2018-08-09T18:34:11.515Z,46.26
2018-08-09T18:36:41.637Z,45.83
2018-08-09T18:39:12.996Z,45.18
2018-08-09T18:41:42.977Z,44.38
2018-08-09T18:44:13.993Z,44.48
2018-08-09T18:46:43.732Z,43.48
2018-08-09T18:49:13.845Z,43.56
2018-08-09T18:51:44.041Z,44.20
2018-08-09T18:57:07.553Z,43.70
2018-08-09T18:59:37.671Z,43.53
2018-08-09T19:02:08.142Z,42.87
2018-08-09T19:04:38.445Z,43.14
2018-08-09T19:07:08.753Z,42.81
2018-08-09T19:09:38.975Z,43.28
2018-08-09T19:12:09.445Z,43.05
2018-08-09T19:14:39.402Z,42.93
2018-08-09T19:17:09.964Z,42.55
2018-08-09T19:19:39.865Z,42.93
2018-08-09T19:22:10.170Z,43.49
2018-08-09T19:24:40.269Z,43.15
2018-08-09T19:27:10.303Z,42.86
2018-08-09T19:29:40.273Z,43.25
2018-08-09T19:32:10.261Z,43.58
2018-08-09T19:34:40.204Z,43.59
2018-08-09T19:37:10.135Z,43.20
2018-08-09T19:39:40.195Z,43.37
2018-08-09T19:42:10.100Z,43.23
2018-08-09T19:44:39.965Z,42.95
2018-08-09T19:47:09.962Z,43.22
2018-08-09T19:49:39.892Z,43.85
2018-08-09T19:52:10.112Z,43.80
2018-08-09T19:54:40.027Z,42.92
2018-08-09T19:57:10.389Z,42.49
2018-08-09T19:59:40.255Z,43.11
2018-08-09T20:02:10.388Z,43.33
2018-08-09T20:04:40.531Z,43.35
2018-08-09T20:07:10.779Z,43.05
2018-08-09T20:09:40.929Z,43.54
2018-08-09T20:12:11.349Z,43.20
2018-08-09T20:14:41.500Z,43.01
2018-08-09T20:17:12.121Z,43.19
2018-08-09T20:19:42.739Z,43.44
2018-08-09T20:22:17.317Z,43.25
2018-08-09T20:24:48.025Z,43.71
2018-08-09T20:27:18.112Z,43.92
2018-08-09T20:29:48.158Z,44.16
2018-08-09T20:32:18.471Z,44.16
2018-08-09T20:34:49.177Z,43.98
2018-08-09T20:37:19.309Z,44.82
2018-08-09T20:39:49.384Z,43.87
2018-08-09T20:42:19.317Z,43.92
2018-08-09T20:44:49.163Z,44.74
2018-08-09T20:47:19.368Z,44.68
2018-08-09T20:49:49.429Z,45.21
2018-08-09T20:52:19.350Z,44.34
2018-08-09T20:54:49.409Z,44.51
2018-08-09T20:57:19.760Z,44.52
2018-08-09T20:59:49.852Z,44.78
2018-08-09T21:02:19.960Z,44.70
2018-08-09T21:04:50.314Z,44.70
2018-08-09T21:07:20.484Z,44.65
2018-08-09T21:09:50.492Z,44.65
2018-08-09T21:12:21.008Z,45.21
2018-08-09T21:14:51.230Z,44.84
2018-08-09T21:17:21.645Z,45.19
2018-08-09T21:19:52.088Z,45.22
2018-08-09T21:22:21.932Z,44.90
2018-08-09T21:24:52.310Z,45.76
2018-08-09T21:27:22.736Z,45.95
2018-08-09T21:29:53.202Z,46.51
2018-08-09T21:32:23.153Z,46.48
2018-08-09T21:34:56.207Z,45.94
2018-08-09T21:37:26.629Z,46.38
2018-08-09T21:39:56.525Z,46.07
2018-08-09T21:42:27.151Z,47.22
2018-08-09T21:44:57.643Z,46.77
2018-08-09T21:47:28.083Z,46.63
2018-08-09T21:49:58.094Z,46.46
2018-08-09T21:52:28.028Z,46.38
2018-08-09T21:54:58.192Z,46.72
2018-08-09T21:57:28.095Z,47.01
2018-08-09T21:59:58.066Z,46.99
2018-08-09T22:02:29.469Z,47.54
2018-08-09T22:05:04.210Z,46.17
2018-08-09T22:07:38.910Z,46.57
2018-08-09T22:10:13.821Z,46.80
2018-08-09T22:12:49.387Z,46.86
2018-08-09T22:15:23.965Z,46.22
2018-08-09T22:17:58.961Z,46.22
2018-08-09T22:20:33.619Z,46.28
2018-08-09T22:23:04.074Z,46.73
2018-08-09T22:25:34.024Z,46.79
2018-08-09T22:28:03.986Z,46.53
2018-08-09T22:30:33.971Z,46.60
2018-08-09T22:33:03.911Z,47.16
2018-08-09T22:35:33.851Z,47.59
2018-08-09T22:38:03.746Z,47.19
2018-08-09T22:40:34.044Z,47.33
2018-08-09T22:43:03.861Z,47.44
2018-08-09T22:45:34.260Z,47.39
2018-08-09T22:48:04.112Z,47.94
2018-08-09T22:50:33.934Z,47.76
2018-08-09T22:53:03.791Z,47.68
2018-08-09T22:55:34.044Z,48.11
2018-08-09T22:58:04.860Z,48.03
2018-08-09T23:00:34.818Z,47.63
2018-08-09T23:03:06.051Z,47.87
2018-08-09T23:05:35.907Z,47.94
2018-08-09T23:08:07.269Z,47.68
2018-08-09T23:10:39.509Z,47.40
2018-08-09T23:13:10.476Z,48.16
2018-08-09T23:15:40.879Z,48.22
2018-08-09T23:18:11.100Z,48.20
2018-08-09T23:20:42.038Z,48.34
2018-08-09T23:23:12.548Z,48.57
2018-08-09T23:25:42.832Z,48.25
2018-08-09T23:28:13.023Z,48.53
2018-08-09T23:30:43.201Z,48.59
2018-08-09T23:33:13.349Z,48.95
2018-08-09T23:35:43.453Z,48.54
2018-08-09T23:38:13.239Z,48.78
2018-08-09T23:40:43.064Z,48.57
2018-08-09T23:43:14.265Z,48.86
2018-08-09T23:45:44.081Z,48.48
2018-08-09T23:48:14.153Z,49.66
2018-08-09T23:50:44.001Z,49.57
2018-08-09T23:53:13.960Z,49.09
2018-08-09T23:55:43.941Z,49.19
2018-08-09T23:58:13.891Z,49.39
